Atlantic, Iowa
Current Conditions -  °F | °C
As of 7:15 AM on Friday 24 Oct 2014 (Local Time) from KAIO Reporting Station
Haze Haze  
Wind Chill: 59°   Ceiling: 400
Heat Index: 59°   Visibility: 2.5mi
Dew Point: 59°   Wind: 12mph
Humidity: 100%   Direction: 200°SSW
Pressure: 29.96"   Gusts: NA
Location:  41.4°N, 95.01°W
Report Text: KAIO 241215Z AUTO 20010KT 2 1/2SM BR OVC004 15/15 A2996 RMK AO2
Loading
Personal Weather Stations






























Interactive Weather Map
Tropical Storm Tracking
New forecast layout! Learn more

10-Day Weather Forecast

Advertisements
Track Severe Weather on mobile